createdAt,value
2023-02-11T00:00:24.341Z,3.13
2023-02-11T00:02:54.979Z,3.47
2023-02-11T00:05:21.753Z,2.60
2023-02-11T00:07:48.425Z,3.27
2023-02-11T00:10:15.387Z,3.33
2023-02-11T00:12:43.251Z,4.83
2023-02-11T00:15:10.539Z,3.07
2023-02-11T00:17:37.421Z,8.73
2023-02-11T00:20:07.228Z,3.63
2023-02-11T00:22:34.912Z,4.67
2023-02-11T00:25:04.296Z,4.87
2023-02-11T00:27:30.996Z,4.87
2023-02-11T00:29:57.686Z,5.53
2023-02-11T00:32:24.598Z,3.53
2023-02-11T00:34:53.627Z,3.53
2023-02-11T00:37:20.270Z,5.83
2023-02-11T00:39:47.293Z,7.10
2023-02-11T00:42:15.348Z,2.50
2023-02-11T00:44:42.051Z,6.20
2023-02-11T00:47:08.844Z,5.73
2023-02-11T00:49:37.029Z,5.47
2023-02-11T00:52:03.941Z,6.67
2023-02-11T00:54:30.775Z,6.27
2023-02-11T00:56:57.559Z,3.70
2023-02-11T00:59:24.324Z,4.77
2023-02-11T01:01:51.200Z,4.83
2023-02-11T01:04:17.955Z,8.27
2023-02-11T01:06:44.805Z,5.77
2023-02-11T01:09:11.669Z,5.40
2023-02-11T01:11:38.371Z,3.53
2023-02-11T01:14:05.128Z,5.57
2023-02-11T01:16:32.222Z,5.50
2023-02-11T01:18:59.044Z,4.20
2023-02-11T01:21:26.432Z,6.73
2023-02-11T01:23:53.485Z,3.77
2023-02-11T01:26:20.215Z,5.30
2023-02-11T01:28:46.949Z,8.63
2023-02-11T01:31:14.482Z,5.40
2023-02-11T01:33:41.529Z,5.17
2023-02-11T01:36:08.873Z,5.90
2023-02-11T01:38:36.315Z,5.30
2023-02-11T01:41:07.118Z,7.10
2023-02-11T01:43:44.184Z,4.90
2023-02-11T01:46:32.554Z,3.57
2023-02-11T01:49:18.617Z,3.80
2023-02-11T01:52:01.094Z,5.57
2023-02-11T01:54:51.356Z,4.85
2023-02-11T01:57:25.328Z,7.00
2023-02-11T01:59:57.353Z,3.77
2023-02-11T02:02:30.428Z,5.47
2023-02-11T02:05:10.215Z,3.60
2023-02-11T02:07:46.192Z,4.10
2023-02-11T02:10:19.848Z,5.63
2023-02-11T02:12:46.596Z,3.53
2023-02-11T02:15:19.604Z,6.60
2023-02-11T02:17:57.600Z,4.30
2023-02-11T02:20:36.692Z,3.93
2023-02-11T02:23:12.866Z,2.97
2023-02-11T02:25:59.084Z,4.13
2023-02-11T02:29:10.225Z,3.43
2023-02-11T02:32:14.550Z,5.63
2023-02-11T02:34:50.319Z,5.77
2023-02-11T02:37:36.929Z,3.67
2023-02-11T02:40:10.037Z,3.77
2023-02-11T02:42:39.920Z,3.30
2023-02-11T02:45:09.111Z,3.63
2023-02-11T02:47:35.878Z,3.40
2023-02-11T02:50:04.801Z,3.97
2023-02-11T02:52:51.780Z,5.23
2023-02-11T02:56:09.324Z,5.47
2023-02-11T02:58:47.943Z,4.17
2023-02-11T03:01:39.902Z,2.80
2023-02-11T03:04:07.010Z,2.60
2023-02-11T03:06:46.127Z,4.53
2023-02-11T03:09:23.944Z,4.33
2023-02-11T03:11:50.704Z,3.47
2023-02-11T03:14:19.472Z,3.37
2023-02-11T03:16:48.633Z,3.00
2023-02-11T03:19:23.266Z,3.37
2023-02-11T03:21:51.972Z,3.53
2023-02-11T03:24:39.866Z,2.50
2023-02-11T03:27:27.870Z,2.60
2023-02-11T03:30:17.194Z,3.20
2023-02-11T03:33:08.932Z,3.73
2023-02-11T03:35:44.125Z,4.27
2023-02-11T03:38:18.458Z,2.90
2023-02-11T03:43:20.239Z,2.87
2023-02-11T03:45:50.034Z,2.50
2023-02-11T03:48:23.728Z,5.60
2023-02-11T03:50:52.444Z,4.10
2023-02-11T03:53:21.879Z,4.27
2023-02-11T03:55:51.975Z,3.97
2023-02-11T03:58:19.286Z,4.73
2023-02-11T04:00:46.323Z,3.03
2023-02-11T04:03:13.693Z,2.37
2023-02-11T04:05:40.631Z,3.40
2023-02-11T04:08:08.009Z,4.93
2023-02-11T04:10:34.908Z,5.87
2023-02-11T04:13:05.577Z,3.80
2023-02-11T04:15:32.570Z,2.53
2023-02-11T04:17:59.394Z,3.77
2023-02-11T04:20:26.264Z,3.57
2023-02-11T04:22:52.888Z,2.80
2023-02-11T04:25:19.785Z,3.00
2023-02-11T04:27:46.772Z,3.50
2023-02-11T04:30:13.766Z,6.60
2023-02-11T04:32:40.532Z,3.27
2023-02-11T04:35:07.635Z,2.30
2023-02-11T04:37:34.343Z,4.70
2023-02-11T04:40:01.179Z,3.63
2023-02-11T04:42:28.025Z,3.27
2023-02-11T04:44:54.723Z,2.57
2023-02-11T04:47:21.576Z,4.70
2023-02-11T04:49:48.448Z,2.20
2023-02-11T04:52:15.141Z,4.30
2023-02-11T04:54:41.963Z,3.00
2023-02-11T04:57:08.835Z,4.13
2023-02-11T04:59:35.578Z,3.27
2023-02-11T05:02:02.473Z,2.43
2023-02-11T05:04:29.309Z,5.47
2023-02-11T05:06:58.349Z,2.77
2023-02-11T05:09:25.511Z,2.93
2023-02-11T05:11:52.390Z,2.37
2023-02-11T05:14:19.038Z,3.87
2023-02-11T05:16:45.849Z,2.43
2023-02-11T05:19:12.968Z,3.07
2023-02-11T05:21:41.053Z,1.77
2023-02-11T05:24:12.307Z,3.05
2023-02-11T05:26:39.145Z,1.70
2023-02-11T05:29:06.019Z,2.53
2023-02-11T05:31:33.471Z,1.80
2023-02-11T05:34:00.243Z,2.90
2023-02-11T05:36:26.994Z,3.70
2023-02-11T05:38:53.722Z,2.00
2023-02-11T05:41:20.504Z,2.00
2023-02-11T05:43:51.325Z,1.53
2023-02-11T05:46:18.434Z,2.77
2023-02-11T05:48:45.239Z,2.70
2023-02-11T05:51:11.911Z,3.07
2023-02-11T05:53:38.685Z,1.47
2023-02-11T05:56:05.765Z,1.70
2023-02-11T05:58:33.166Z,2.00
2023-02-11T06:00:59.981Z,2.10
2023-02-11T06:03:26.719Z,3.47
2023-02-11T06:05:53.591Z,2.57
2023-02-11T06:08:20.420Z,4.00
2023-02-11T06:10:47.150Z,1.70
2023-02-11T06:13:14.041Z,1.77
2023-02-11T06:15:40.841Z,2.90
2023-02-11T06:18:08.077Z,3.33
2023-02-11T06:20:35.039Z,2.63
2023-02-11T06:23:01.775Z,1.23
2023-02-11T06:25:28.572Z,1.70
2023-02-11T06:27:55.573Z,0.80
2023-02-11T06:30:22.483Z,1.90
2023-02-11T06:32:49.417Z,3.10
2023-02-11T06:35:16.304Z,1.73
2023-02-11T06:37:43.536Z,1.90
2023-02-11T06:40:11.740Z,1.47
2023-02-11T06:42:39.424Z,1.33
2023-02-11T06:45:09.212Z,2.10
2023-02-11T06:47:36.073Z,3.33
2023-02-11T06:50:03.281Z,2.73
2023-02-11T06:52:30.113Z,2.83
2023-02-11T06:54:56.855Z,2.20
2023-02-11T06:57:23.537Z,3.17
2023-02-11T06:59:50.388Z,3.33
2023-02-11T07:02:20.399Z,4.60
2023-02-11T07:04:47.669Z,2.10
2023-02-11T07:07:14.555Z,3.50
2023-02-11T07:09:41.759Z,3.30
2023-02-11T07:12:10.655Z,1.97
2023-02-11T07:14:37.764Z,2.87
2023-02-11T07:17:04.907Z,2.43
2023-02-11T07:19:32.214Z,2.57
2023-02-11T07:21:59.085Z,3.03
2023-02-11T07:24:25.844Z,5.10
2023-02-11T07:26:55.714Z,4.13
2023-02-11T07:29:22.649Z,2.60
2023-02-11T07:31:49.428Z,2.93
2023-02-11T07:34:16.220Z,6.80
2023-02-11T07:36:46.091Z,2.53
2023-02-11T07:39:13.699Z,6.37
2023-02-11T07:41:40.439Z,3.60
2023-02-11T07:44:07.663Z,4.37
2023-02-11T07:46:35.874Z,2.87
2023-02-11T07:49:03.336Z,1.80
2023-02-11T07:51:31.222Z,4.87
2023-02-11T07:54:00.032Z,3.23
2023-02-11T07:56:28.161Z,4.70
2023-02-11T07:58:55.620Z,4.57
2023-02-11T08:01:27.236Z,5.90
2023-02-11T08:03:58.496Z,3.00
2023-02-11T08:06:27.493Z,2.53
2023-02-11T08:08:54.603Z,3.30
2023-02-11T08:11:26.979Z,4.37
2023-02-11T08:13:55.408Z,2.80
2023-02-11T08:16:26.901Z,5.43
2023-02-11T08:18:55.624Z,2.10
2023-02-11T08:21:22.355Z,4.83
2023-02-11T08:23:49.972Z,3.67
2023-02-11T08:26:19.290Z,2.00
2023-02-11T08:29:45.849Z,1.20
2023-02-11T08:36:15.649Z,2.37
2023-02-11T08:38:42.821Z,2.67
2023-02-11T08:41:09.656Z,4.60
2023-02-11T08:43:37.494Z,2.27
2023-02-11T08:46:05.817Z,2.43
2023-02-11T08:48:32.675Z,2.90
2023-02-11T08:50:59.799Z,1.23
2023-02-11T08:53:27.005Z,7.43
2023-02-11T08:55:55.380Z,1.93
2023-02-11T08:58:22.993Z,2.47
2023-02-11T09:00:50.557Z,5.97
2023-02-11T09:03:17.577Z,2.70
2023-02-11T09:05:46.342Z,2.70
2023-02-11T09:08:14.147Z,4.30
2023-02-11T09:10:40.866Z,1.73
2023-02-11T09:13:08.151Z,3.07
2023-02-11T09:15:35.805Z,3.27
2023-02-11T09:18:05.986Z,3.43
2023-02-11T09:20:32.992Z,4.10
2023-02-11T09:22:59.942Z,3.20
2023-02-11T09:25:26.967Z,5.10
2023-02-11T09:27:54.170Z,5.33
2023-02-11T09:30:21.681Z,1.83
2023-02-11T09:32:48.557Z,2.60
2023-02-11T09:35:15.341Z,4.83
2023-02-11T09:37:42.326Z,6.17
2023-02-11T09:40:10.380Z,5.17
2023-02-11T09:43:01.779Z,3.47
2023-02-11T09:45:31.501Z,4.35
2023-02-11T09:48:05.910Z,4.77
2023-02-11T09:50:36.912Z,4.93
2023-02-11T09:53:15.402Z,3.07
2023-02-11T09:55:46.741Z,2.57
2023-02-11T09:58:16.354Z,2.93
2023-02-11T10:00:57.413Z,3.33
2023-02-11T10:03:36.003Z,5.53
2023-02-11T10:06:29.201Z,4.53
2023-02-11T10:09:04.824Z,3.78
2023-02-11T10:11:52.485Z,2.67
2023-02-11T10:14:29.182Z,4.93
2023-02-11T10:17:38.708Z,4.83
2023-02-11T10:20:19.217Z,7.20
2023-02-11T10:22:49.712Z,5.47
2023-02-11T10:25:26.068Z,6.87
2023-02-11T10:27:57.150Z,5.20
2023-02-11T10:30:31.379Z,4.57
2023-02-11T10:33:04.493Z,9.93
2023-02-11T10:35:32.322Z,3.70
2023-02-11T10:37:59.940Z,3.43
2023-02-11T10:40:29.663Z,4.00
2023-02-11T10:43:01.220Z,3.93
2023-02-11T10:45:38.475Z,5.87
2023-02-11T10:48:07.007Z,9.60
2023-02-11T10:50:35.517Z,7.07
2023-02-11T10:53:17.199Z,7.43
2023-02-11T10:55:52.882Z,2.20
2023-02-11T10:58:29.053Z,4.67
2023-02-11T11:00:58.950Z,4.97
2023-02-11T11:03:39.549Z,9.47
2023-02-11T11:06:09.779Z,7.43
2023-02-11T11:08:45.366Z,5.30
2023-02-11T11:11:14.893Z,5.70
2023-02-11T11:13:54.213Z,3.73
2023-02-11T11:16:33.689Z,6.97
2023-02-11T11:19:09.414Z,8.20
2023-02-11T11:21:40.682Z,4.90
2023-02-11T11:24:19.056Z,7.53
2023-02-11T11:26:55.262Z,7.67
2023-02-11T11:29:33.985Z,3.90
2023-02-11T11:32:05.700Z,6.87
2023-02-11T11:34:39.426Z,7.27
2023-02-11T11:37:28.901Z,13.47
2023-02-11T11:40:08.435Z,6.07
2023-02-11T11:42:37.335Z,4.10
2023-02-11T11:45:24.935Z,4.43
2023-02-11T11:48:03.469Z,5.10
2023-02-11T11:50:56.294Z,5.43
2023-02-11T11:54:02.915Z,4.38
2023-02-11T11:56:33.904Z,8.33
2023-02-11T11:59:06.672Z,5.53
2023-02-11T12:04:18.021Z,7.33
2023-02-11T12:06:45.595Z,2.80
2023-02-11T12:09:37.339Z,7.17
2023-02-11T12:12:06.773Z,7.50
2023-02-11T12:14:36.038Z,10.10
2023-02-11T12:17:08.794Z,5.67
2023-02-11T12:19:44.293Z,6.80
2023-02-11T12:22:23.726Z,8.63
2023-02-11T12:25:08.962Z,3.60
2023-02-11T12:27:44.414Z,9.20
2023-02-11T12:30:23.141Z,12.33
2023-02-11T12:32:57.763Z,8.93
2023-02-11T12:35:42.729Z,6.13
2023-02-11T12:38:16.241Z,3.53
2023-02-11T12:41:10.347Z,3.70
2023-02-11T12:43:42.751Z,5.50
2023-02-11T12:46:10.251Z,4.57
2023-02-11T12:48:39.615Z,6.27
2023-02-11T12:51:15.507Z,5.87
2023-02-11T12:53:49.475Z,7.97
2023-02-11T12:56:29.215Z,6.47
2023-02-11T12:59:00.117Z,5.00
2023-02-11T13:01:29.067Z,3.77
2023-02-11T13:04:06.748Z,6.13
2023-02-11T13:06:41.932Z,4.43
2023-02-11T13:09:19.168Z,2.13
2023-02-11T13:11:52.275Z,4.13
2023-02-11T13:14:29.082Z,5.57
2023-02-11T13:16:58.548Z,5.50
2023-02-11T13:19:38.255Z,2.53
2023-02-11T13:22:57.482Z,5.20
2023-02-11T13:25:40.795Z,5.80
2023-02-11T13:28:10.514Z,4.57
2023-02-11T13:30:41.095Z,1.57
2023-02-11T13:33:17.154Z,4.13
2023-02-11T13:36:09.963Z,3.70
2023-02-11T13:38:37.954Z,5.47
2023-02-11T13:41:25.718Z,6.27
2023-02-11T13:44:22.816Z,5.20
2023-02-11T13:47:02.461Z,1.80
2023-02-11T13:49:42.929Z,1.33
2023-02-11T13:52:33.170Z,5.77
2023-02-11T13:55:14.741Z,2.40
2023-02-11T13:57:42.302Z,3.90
2023-02-11T14:00:34.216Z,5.33
2023-02-11T14:03:31.841Z,3.10
2023-02-11T14:06:42.981Z,22.07
2023-02-11T14:09:29.511Z,8.80
2023-02-11T14:12:32.570Z,4.33
2023-02-11T14:15:20.056Z,9.70
2023-02-11T14:17:47.078Z,7.20
2023-02-11T14:20:44.605Z,5.93
2023-02-11T14:23:24.869Z,4.50
2023-02-11T14:26:03.679Z,5.33
2023-02-11T14:28:34.620Z,4.40
2023-02-11T14:31:10.266Z,6.10
2023-02-11T14:33:58.678Z,4.27
2023-02-11T14:36:31.450Z,5.00
2023-02-11T14:41:47.579Z,4.53
2023-02-11T14:44:22.479Z,8.40
2023-02-11T14:46:53.415Z,5.87
2023-02-11T14:49:36.961Z,5.57
2023-02-11T14:52:34.473Z,9.87
2023-02-11T14:55:31.382Z,5.03
2023-02-11T14:58:18.080Z,3.23
2023-02-11T15:00:58.547Z,6.27
2023-02-11T15:03:43.001Z,6.33
2023-02-11T15:06:20.199Z,6.73
2023-02-11T15:09:14.870Z,6.17
2023-02-11T15:11:44.952Z,3.00
2023-02-11T15:14:24.797Z,4.33
2023-02-11T15:16:54.393Z,5.13
2023-02-11T15:19:37.914Z,3.50
2023-02-11T15:22:07.699Z,4.23
2023-02-11T15:24:35.628Z,5.83
2023-02-11T15:27:14.817Z,2.13
2023-02-11T15:29:49.257Z,3.20
2023-02-11T15:32:18.842Z,3.63
2023-02-11T15:34:46.872Z,3.33
2023-02-11T15:37:25.369Z,4.27
2023-02-11T15:39:54.313Z,3.53
2023-02-11T15:42:26.655Z,3.87
2023-02-11T15:45:24.764Z,7.57
2023-02-11T15:47:58.531Z,4.23
2023-02-11T15:50:29.535Z,4.13
2023-02-11T15:52:59.507Z,6.50
2023-02-11T15:55:28.009Z,3.40
2023-02-11T15:58:03.227Z,4.87
2023-02-11T16:00:37.441Z,7.90
2023-02-11T16:03:05.253Z,7.37
2023-02-11T16:05:37.465Z,5.33
2023-02-11T16:08:22.938Z,6.15
2023-02-11T16:10:58.966Z,6.60
2023-02-11T16:13:30.939Z,5.67
2023-02-11T16:16:02.651Z,7.38
2023-02-11T16:19:03.144Z,10.70
2023-02-11T16:21:42.471Z,7.50
2023-02-11T16:24:20.396Z,7.83
2023-02-11T16:26:56.264Z,6.97
2023-02-11T16:29:33.716Z,7.80
2023-02-11T16:32:10.187Z,7.20
2023-02-11T16:34:37.536Z,4.60
2023-02-11T16:37:05.805Z,7.10
2023-02-11T16:39:32.877Z,3.73
2023-02-11T16:42:00.147Z,6.87
2023-02-11T16:44:27.137Z,4.77
2023-02-11T16:46:54.314Z,4.20
2023-02-11T16:49:28.511Z,5.23
2023-02-11T16:52:01.120Z,3.90
2023-02-11T16:54:29.372Z,5.13
2023-02-11T16:56:56.999Z,11.43
2023-02-11T16:59:23.949Z,6.00
2023-02-11T17:01:53.428Z,7.73
2023-02-11T17:04:31.252Z,4.27
2023-02-11T17:06:58.790Z,5.43
2023-02-11T17:09:30.306Z,4.97
2023-02-11T17:11:57.709Z,3.58
2023-02-11T17:14:24.784Z,4.20
2023-02-11T17:16:51.999Z,2.57
2023-02-11T17:19:21.142Z,5.67
2023-02-11T17:21:50.374Z,3.00
2023-02-11T17:24:17.903Z,6.43
2023-02-11T17:26:45.694Z,9.33
2023-02-11T17:29:16.023Z,13.93
2023-02-11T17:31:43.350Z,5.77
2023-02-11T17:34:10.779Z,4.93
2023-02-11T17:36:37.746Z,5.47
2023-02-11T17:39:08.037Z,5.47
2023-02-11T17:41:36.824Z,2.93
2023-02-11T17:44:04.054Z,4.10
2023-02-11T17:46:32.257Z,7.87
2023-02-11T17:48:59.684Z,3.43
2023-02-11T17:51:33.186Z,6.10
2023-02-11T17:54:02.635Z,6.57
2023-02-11T17:56:33.155Z,4.80
2023-02-11T17:59:00.100Z,5.23
2023-02-11T18:01:31.444Z,11.13
2023-02-11T18:03:58.298Z,5.33
2023-02-11T18:06:25.583Z,5.83
2023-02-11T18:08:52.474Z,5.10
2023-02-11T18:11:19.469Z,5.43
2023-02-11T18:13:51.490Z,6.97
2023-02-11T18:16:18.265Z,3.85
2023-02-11T18:18:45.439Z,5.90
2023-02-11T18:21:14.265Z,4.83
2023-02-11T18:23:41.047Z,6.27
2023-02-11T18:26:09.410Z,6.53
2023-02-11T18:28:36.306Z,2.67
2023-02-11T18:31:04.199Z,3.63
2023-02-11T18:33:31.403Z,4.83
2023-02-11T18:35:58.283Z,3.37
2023-02-11T18:38:25.279Z,9.13
2023-02-11T18:40:52.583Z,4.03
2023-02-11T18:43:20.471Z,3.77
2023-02-11T18:45:49.250Z,4.60
2023-02-11T18:48:17.395Z,5.47
2023-02-11T18:50:45.498Z,2.30
2023-02-11T18:53:15.728Z,4.17
2023-02-11T18:55:44.419Z,4.13
2023-02-11T18:58:11.384Z,9.53
2023-02-11T19:00:40.617Z,6.97
2023-02-11T19:03:07.581Z,8.30
2023-02-11T19:05:42.055Z,7.77
2023-02-11T19:08:08.972Z,11.40
2023-02-11T19:10:35.703Z,8.93
2023-02-11T19:13:02.564Z,8.27
2023-02-11T19:15:29.333Z,10.03
2023-02-11T19:17:56.113Z,19.20
2023-02-11T19:20:23.120Z,7.60
2023-02-11T19:22:49.918Z,4.87
2023-02-11T19:25:16.644Z,10.40
2023-02-11T19:27:43.625Z,11.03
2023-02-11T19:30:11.116Z,18.77
2023-02-11T19:32:37.781Z,35.83
2023-02-11T19:35:04.773Z,30.67
2023-02-11T19:37:31.567Z,28.47
2023-02-11T19:39:58.226Z,28.57
2023-02-11T19:42:27.609Z,30.03
2023-02-11T19:44:54.606Z,7.07
2023-02-11T19:47:27.777Z,14.10
2023-02-11T19:49:56.050Z,14.87
2023-02-11T19:52:22.703Z,24.23
2023-02-11T19:54:49.560Z,33.00
2023-02-11T19:57:16.608Z,8.83
2023-02-11T19:59:43.273Z,9.63
2023-02-11T20:02:13.301Z,7.37
2023-02-11T20:04:40.221Z,5.57
2023-02-11T20:07:06.862Z,5.20
2023-02-11T20:09:33.621Z,5.13
2023-02-11T20:12:00.674Z,3.27
2023-02-11T20:14:28.154Z,6.27
2023-02-11T20:16:55.078Z,20.20
2023-02-11T20:19:22.346Z,9.27
2023-02-11T20:21:52.025Z,4.93
2023-02-11T20:25:18.693Z,10.53
2023-02-11T20:27:45.362Z,8.73
2023-02-11T20:30:13.283Z,5.97
2023-02-11T20:32:40.231Z,10.57
2023-02-11T20:35:08.407Z,9.43
2023-02-11T20:37:35.269Z,9.40
2023-02-11T20:40:02.665Z,7.70
2023-02-11T20:42:30.148Z,9.80
2023-02-11T20:44:56.895Z,7.40
2023-02-11T20:47:23.757Z,10.27
2023-02-11T20:49:50.578Z,12.27
2023-02-11T20:52:17.358Z,13.40
2023-02-11T20:54:44.411Z,11.37
2023-02-11T20:57:11.070Z,12.53
2023-02-11T20:59:37.833Z,17.23
2023-02-11T21:02:04.950Z,10.20
2023-02-11T21:04:32.742Z,14.03
2023-02-11T21:07:01.775Z,12.10
2023-02-11T21:10:28.401Z,12.57
2023-02-11T21:12:55.188Z,9.23
2023-02-11T21:15:24.274Z,8.73
2023-02-11T21:17:51.540Z,6.97
2023-02-11T21:20:18.433Z,7.13
2023-02-11T21:22:45.193Z,25.13
2023-02-11T21:25:12.015Z,12.87
2023-02-11T21:27:38.777Z,12.20
2023-02-11T21:30:06.721Z,24.03
2023-02-11T21:32:33.637Z,11.30
2023-02-11T21:35:02.302Z,7.10
2023-02-11T21:37:29.313Z,7.13
2023-02-11T21:39:56.074Z,10.07
2023-02-11T21:42:22.827Z,6.47
2023-02-11T21:44:49.646Z,5.30
2023-02-11T21:47:16.423Z,6.63
2023-02-11T21:49:43.339Z,8.23
2023-02-11T21:52:10.014Z,10.20
2023-02-11T21:54:36.759Z,9.63
2023-02-11T21:57:03.573Z,8.17
2023-02-11T21:59:33.062Z,5.47
2023-02-11T22:01:59.871Z,7.33
2023-02-11T22:04:27.072Z,8.00
2023-02-11T22:06:53.872Z,5.83
2023-02-11T22:09:20.617Z,4.13
2023-02-11T22:11:49.336Z,7.67
2023-02-11T22:14:16.954Z,7.00
2023-02-11T22:16:47.522Z,4.73
2023-02-11T22:19:14.561Z,6.00
2023-02-11T22:21:43.586Z,13.53
2023-02-11T22:24:10.603Z,10.30
2023-02-11T22:26:37.991Z,13.50
2023-02-11T22:29:04.922Z,10.73
2023-02-11T22:31:33.957Z,5.83
2023-02-11T22:34:02.227Z,6.97
2023-02-11T22:36:34.856Z,5.43
2023-02-11T22:39:03.882Z,6.82
2023-02-11T22:41:30.849Z,5.97
2023-02-11T22:43:57.855Z,8.60
2023-02-11T22:46:24.657Z,9.20
2023-02-11T22:48:51.882Z,5.37
2023-02-11T22:51:25.426Z,5.43
2023-02-11T22:53:52.959Z,5.20
2023-02-11T22:56:20.505Z,8.43
2023-02-11T22:58:50.569Z,5.03
2023-02-11T23:01:17.902Z,6.23
2023-02-11T23:03:44.751Z,7.10
2023-02-11T23:06:12.210Z,7.27
2023-02-11T23:08:40.645Z,5.47
2023-02-11T23:11:10.429Z,7.53
2023-02-11T23:13:39.777Z,5.17
2023-02-11T23:16:09.284Z,5.47
2023-02-11T23:18:38.305Z,5.77
2023-02-11T23:21:09.495Z,6.30
2023-02-11T23:23:37.447Z,3.67
2023-02-11T23:26:04.947Z,5.03
2023-02-11T23:28:31.777Z,19.67
2023-02-11T23:30:58.539Z,8.80
2023-02-11T23:33:25.261Z,18.20
2023-02-11T23:35:52.434Z,7.97
2023-02-11T23:38:19.250Z,5.80
2023-02-11T23:40:46.556Z,5.90
2023-02-11T23:43:13.469Z,4.03
2023-02-11T23:45:40.264Z,3.90
2023-02-11T23:48:06.982Z,3.80
2023-02-11T23:50:34.786Z,5.17
2023-02-11T23:53:01.558Z,2.87
2023-02-11T23:55:30.758Z,2.67
2023-02-11T23:57:57.755Z,3.00
